Murdock, Ohio
Current Conditions -  °F | °C
As of 3:53 PM on Friday 24 Oct 2014 (Local Time) from KLUK Reporting Station
Clear Clear  
Wind Chill: 65°   Ceiling: Unl
Heat Index: 65°   Visibility: 10mi
Dew Point: 39°   Wind: 3mph
Humidity: 39%   Direction: 200°SSW
Pressure: 30.05"   Gusts: NA
Location:  39.23°N, 84.2394°W
Report Text: KLUK 241953Z 20003KT 10SM CLR 18/04 A3005 RMK AO2 SLP175 T01830039
Loading
Personal Weather Stations






























Interactive Weather Map
Tropical Storm Tracking
New forecast layout! Learn more

10-Day Weather Forecast

Advertisements
Track Severe Weather on mobile